createdAt,value
2017-02-18T00:00:03.476Z,1027.29
2017-02-18T00:05:03.384Z,1027.26
2017-02-18T00:10:03.400Z,1027.27
2017-02-18T00:15:03.436Z,1027.23
2017-02-18T00:20:03.431Z,1027.24
2017-02-18T00:25:03.409Z,1027.29
2017-02-18T00:30:03.436Z,1027.3
2017-02-18T00:35:03.453Z,1027.25
2017-02-18T00:40:03.471Z,1027.37
2017-02-18T00:45:03.459Z,1027.37
2017-02-18T00:50:03.490Z,1027.36
2017-02-18T00:55:03.504Z,1027.31
2017-02-18T01:00:03.425Z,1027.31
2017-02-18T01:05:02.773Z,1027.32
2017-02-18T01:10:02.823Z,1027.28
2017-02-18T01:15:02.766Z,1027.33
2017-02-18T01:20:02.782Z,1027.28
2017-02-18T01:25:02.751Z,1027.3
2017-02-18T01:30:02.763Z,1027.31
2017-02-18T01:35:02.763Z,1027.24
2017-02-18T01:40:02.780Z,1027.3
2017-02-18T01:45:02.768Z,1027.24
2017-02-18T01:50:02.782Z,1027.28
2017-02-18T01:55:02.776Z,1027.24
2017-02-18T02:00:02.721Z,1027.15
2017-02-18T02:05:02.709Z,1027.14
2017-02-18T02:10:02.751Z,1027.06
2017-02-18T02:15:02.679Z,1027.05
2017-02-18T02:20:03.689Z,1027.04
2017-02-18T02:25:02.654Z,1027.08
2017-02-18T02:30:03.615Z,1027.05
2017-02-18T02:35:03.619Z,1027.1
2017-02-18T02:40:03.646Z,1026.96
2017-02-18T02:45:03.606Z,1026.92
2017-02-18T02:50:03.636Z,1026.9
2017-02-18T02:55:10.601Z,1026.81
2017-02-18T03:00:03.569Z,1026.84
2017-02-18T03:05:03.572Z,1026.86
2017-02-18T03:10:03.552Z,1026.89
2017-02-18T03:15:03.517Z,1026.83
2017-02-18T03:20:03.555Z,1026.89
2017-02-18T03:25:03.514Z,1026.92
2017-02-18T03:30:03.501Z,1026.91
2017-02-18T03:35:03.499Z,1026.88
2017-02-18T03:40:03.514Z,1026.93
2017-02-18T03:45:03.523Z,1026.94
2017-02-18T03:50:03.504Z,1026.92
2017-02-18T03:55:03.488Z,1026.89
2017-02-18T04:00:03.512Z,1026.97
2017-02-18T04:05:03.508Z,1026.91
2017-02-18T04:10:03.580Z,1026.95
2017-02-18T04:15:03.600Z,1026.91
2017-02-18T04:20:03.593Z,1026.93
2017-02-18T04:25:03.579Z,1026.89
2017-02-18T04:30:03.601Z,1026.91
2017-02-18T04:35:03.664Z,1026.9
2017-02-18T04:40:03.660Z,1026.91
2017-02-18T04:45:03.656Z,1027.01
2017-02-18T04:50:03.672Z,1026.98
2017-02-18T04:55:03.690Z,1026.98
2017-02-18T05:00:03.666Z,1026.97
2017-02-18T05:05:03.720Z,1026.97
2017-02-18T05:10:02.712Z,1026.99
2017-02-18T05:15:03.711Z,1026.96
2017-02-18T05:20:02.702Z,1026.94
2017-02-18T05:25:03.858Z,1026.97
2017-02-18T05:30:03.204Z,1027.05
2017-02-18T05:35:03.302Z,1026.96
2017-02-18T05:40:03.344Z,1026.93
2017-02-18T05:45:03.415Z,1026.91
2017-02-18T05:50:03.422Z,1026.92
2017-02-18T05:55:03.408Z,1026.89
2017-02-18T06:00:03.414Z,1026.99
2017-02-18T06:05:03.413Z,1027
2017-02-18T06:10:03.528Z,1027.15
2017-02-18T06:15:03.485Z,1027.15
2017-02-18T06:20:03.500Z,1027.26
2017-02-18T06:25:03.590Z,1027.24
2017-02-18T06:30:03.626Z,1027.29
2017-02-18T06:35:03.638Z,1027.3
2017-02-18T06:40:03.745Z,1027.29
2017-02-18T06:45:02.728Z,1027.29
2017-02-18T06:50:02.754Z,1027.32
2017-02-18T06:55:02.742Z,1027.3
2017-02-18T07:00:02.757Z,1027.29
2017-02-18T07:05:02.790Z,1027.35
2017-02-18T07:10:02.856Z,1027.34
2017-02-18T07:15:02.854Z,1027.28
2017-02-18T07:20:02.867Z,1027.33
2017-02-18T07:25:02.905Z,1027.34
2017-02-18T07:30:03.643Z,1027.38
2017-02-18T07:35:02.753Z,1027.42
2017-02-18T07:40:03.561Z,1027.34
2017-02-18T07:45:03.540Z,1027.37
2017-02-18T07:50:03.311Z,1027.4
2017-02-18T07:55:03.003Z,1027.38
2017-02-18T08:00:03.000Z,1027.41
2017-02-18T08:05:02.900Z,1027.39
2017-02-18T08:10:02.831Z,1027.43
2017-02-18T08:15:03.645Z,1027.37
2017-02-18T08:20:03.454Z,1027.38
2017-02-18T08:25:03.404Z,1027.39
2017-02-18T08:30:03.472Z,1027.32
2017-02-18T08:35:03.492Z,1027.41
2017-02-18T08:40:03.406Z,1027.42
2017-02-18T08:45:03.140Z,1027.33
2017-02-18T10:10:03.071Z,1027.25
2017-02-18T10:15:03.234Z,1027.31
2017-02-18T10:20:03.348Z,1027.29
2017-02-18T10:25:02.863Z,1027.28
2017-02-18T10:30:03.507Z,1027.32
2017-02-18T10:35:02.935Z,1027.41
2017-02-18T10:40:03.425Z,1027.45
2017-02-18T10:45:03.749Z,1027.54
2017-02-18T10:50:02.885Z,1027.5
2017-02-18T10:55:03.040Z,1027.51
2017-02-18T11:00:03.547Z,1027.42
2017-02-18T11:05:03.450Z,1027.42
2017-02-18T11:10:03.627Z,1027.46
2017-02-18T11:15:03.519Z,1027.37
2017-02-18T11:20:02.919Z,1027.36
2017-02-18T11:25:03.337Z,1027.27
2017-02-18T11:30:03.074Z,1027.24
2017-02-18T11:35:03.447Z,1027.3
2017-02-18T11:40:03.297Z,1027.21
2017-02-18T11:45:03.608Z,1027.07
2017-02-18T11:50:03.522Z,1027.04
2017-02-18T11:55:02.895Z,1026.96
2017-02-18T12:00:03.145Z,1026.95
2017-02-18T12:05:03.340Z,1026.86
2017-02-18T12:10:03.452Z,1026.83
2017-02-18T12:15:02.693Z,1026.73
2017-02-18T12:20:03.488Z,1026.76
2017-02-18T12:25:03.009Z,1026.7
2017-02-18T12:30:02.868Z,1026.74
2017-02-18T12:35:03.495Z,1026.7
2017-02-18T12:40:03.082Z,1026.59
2017-02-18T12:45:03.436Z,1026.56
2017-02-18T12:50:03.699Z,1026.47
2017-02-18T12:55:03.649Z,1026.4
2017-02-18T13:00:03.547Z,1026.32
2017-02-18T13:05:03.346Z,1026.37
2017-02-18T13:10:02.833Z,1026.3
2017-02-18T13:15:03.529Z,1026.18
2017-02-18T13:20:03.484Z,1026.23
2017-02-18T13:25:03.417Z,1026.21
2017-02-18T13:30:03.151Z,1026.16
2017-02-18T13:35:02.911Z,1026.13
2017-02-18T13:40:02.981Z,1026.1
2017-02-18T13:45:02.761Z,1026.1
2017-02-18T13:50:03.550Z,1026.13
2017-02-18T13:55:03.668Z,1026.04
2017-02-18T14:00:03.656Z,1026.08
2017-02-18T14:05:03.399Z,1026
2017-02-18T14:10:03.254Z,1026.11
2017-02-18T14:15:03.193Z,1025.99
2017-02-18T14:20:03.187Z,1025.95
2017-02-18T14:25:03.262Z,1026.02
2017-02-18T14:30:03.176Z,1025.96
2017-02-18T14:35:02.957Z,1026.02
2017-02-18T14:40:02.807Z,1026.01
2017-02-18T14:45:02.932Z,1025.92
2017-02-18T14:50:03.602Z,1025.95
2017-02-18T14:55:03.422Z,1025.91
2017-02-18T15:00:03.353Z,1025.9
2017-02-18T15:05:03.078Z,1025.83
2017-02-18T15:10:02.947Z,1025.77
2017-02-18T15:15:02.827Z,1025.69
2017-02-18T15:20:03.699Z,1025.66
2017-02-18T15:25:02.987Z,1025.7
2017-02-18T15:30:03.429Z,1025.64
2017-02-18T15:35:03.473Z,1025.55
2017-02-18T15:40:03.358Z,1025.67
2017-02-18T15:45:03.243Z,1025.59
2017-02-18T15:50:03.570Z,1025.75
2017-02-18T15:55:03.601Z,1025.72
2017-02-18T16:00:03.342Z,1025.73
2017-02-18T16:05:03.454Z,1025.64
2017-02-18T16:10:03.438Z,1025.66
2017-02-18T16:15:03.595Z,1025.64
2017-02-18T16:20:03.461Z,1025.6
2017-02-18T16:25:03.304Z,1025.63
2017-02-18T16:30:03.426Z,1025.65
2017-02-18T16:35:03.266Z,1025.57
2017-02-18T16:40:03.467Z,1025.64
2017-02-18T16:45:03.587Z,1025.56
2017-02-18T16:50:03.479Z,1025.51
2017-02-18T16:55:03.670Z,1025.51
2017-02-18T17:00:03.615Z,1025.51
2017-02-18T17:05:03.539Z,1025.51
2017-02-18T17:10:03.522Z,1025.42
2017-02-18T17:15:03.545Z,1025.44
2017-02-18T17:20:03.493Z,1025.45
2017-02-18T17:25:03.743Z,1025.47
2017-02-18T17:30:02.739Z,1025.47
2017-02-18T17:35:03.400Z,1025.5
2017-02-18T17:40:03.327Z,1025.45
2017-02-18T17:45:03.438Z,1025.45
2017-02-18T17:50:03.259Z,1025.46
2017-02-18T17:55:03.184Z,1025.39
2017-02-18T18:00:02.976Z,1025.38
2017-02-18T18:05:03.039Z,1025.38
2017-02-18T18:10:02.883Z,1025.44
2017-02-18T18:15:02.674Z,1025.4
2017-02-18T18:20:03.787Z,1025.37
2017-02-18T18:25:03.609Z,1025.33
2017-02-18T18:30:03.399Z,1025.34
2017-02-18T18:35:03.286Z,1025.27
2017-02-18T18:40:03.049Z,1025.3
2017-02-18T18:45:02.942Z,1025.25
2017-02-18T18:50:02.842Z,1025.25
2017-02-18T18:55:03.692Z,1025.19
2017-02-18T19:00:03.478Z,1025.21
2017-02-18T19:05:03.374Z,1025.15
2017-02-18T19:10:03.313Z,1025.09
2017-02-18T19:15:03.255Z,1025.13
2017-02-18T19:20:03.294Z,1025.05
2017-02-18T19:25:03.187Z,1024.97
2017-02-18T19:30:02.964Z,1024.94
2017-02-18T19:35:02.861Z,1024.96
2017-02-18T19:40:02.978Z,1024.9
2017-02-18T19:45:03.044Z,1024.8
2017-02-18T19:50:03.043Z,1024.8
2017-02-18T19:55:02.961Z,1024.77
2017-02-18T20:00:02.922Z,1024.8
2017-02-18T20:05:03.082Z,1024.78
2017-02-18T20:10:02.985Z,1024.77
2017-02-18T20:15:03.126Z,1024.78
2017-02-18T20:20:03.115Z,1024.71
2017-02-18T20:25:02.970Z,1024.72
2017-02-18T20:30:02.822Z,1024.72
2017-02-18T20:35:03.486Z,1024.72
2017-02-18T20:40:03.311Z,1024.66
2017-02-18T20:45:03.099Z,1024.72
2017-02-18T20:50:02.951Z,1024.64
2017-02-18T20:55:03.016Z,1024.56
2017-02-18T21:00:03.206Z,1024.51
2017-02-18T21:05:03.107Z,1024.59
2017-02-18T21:10:03.018Z,1024.55
2017-02-18T21:15:02.871Z,1024.58
2017-02-18T21:20:02.952Z,1024.63
2017-02-18T21:25:02.835Z,1024.63
2017-02-18T21:30:03.514Z,1024.58
2017-02-18T21:35:03.247Z,1024.62
2017-02-18T21:40:03.105Z,1024.52
2017-02-18T21:45:02.855Z,1024.49
2017-02-18T21:50:02.820Z,1024.48
2017-02-18T21:55:03.614Z,1024.48
2017-02-18T22:00:03.676Z,1024.42
2017-02-18T22:05:02.867Z,1024.41
2017-02-18T22:10:02.650Z,1024.29
2017-02-18T22:15:03.326Z,1024.28
2017-02-18T22:20:03.110Z,1024.33
2017-02-18T22:25:02.963Z,1024.28
2017-02-18T22:30:03.421Z,1024.19
2017-02-18T22:35:03.055Z,1024.19
2017-02-18T22:40:02.818Z,1024.21
2017-02-18T22:45:03.640Z,1024.29
2017-02-18T22:50:03.463Z,1024.26
2017-02-18T22:55:03.208Z,1024.29
2017-02-18T23:00:03.019Z,1024.26
2017-02-18T23:05:02.750Z,1024.24
2017-02-18T23:10:03.592Z,1024.24
2017-02-18T23:15:03.383Z,1024.19
2017-02-18T23:20:03.498Z,1024.17
2017-02-18T23:25:03.557Z,1024.12
2017-02-18T23:30:03.412Z,1024.14
2017-02-18T23:35:03.587Z,1024.13
2017-02-18T23:40:03.495Z,1024.12
2017-02-18T23:45:03.382Z,1024.14
2017-02-18T23:50:03.319Z,1024.07
2017-02-18T23:55:03.186Z,1024.08
